Accueil
METAR-TAF:

METAR-TAF

Aéroports :

Tunis, Tunisie

Aéroport international de Tunis-Carthage

latitude: 36-50N, longitude: 010-14E, altitude: 3 m

Observation

Le bulletin a été fait il y a 25 minutes, à 12:30 UTC
Vent 4 kt de sud-est, variant entre nord-est et sud
Température 28°C
Humidité 37%
Pression 1017 hPa
Visibilité 10 km ou plus
pas de nuages en-dessous de 1500 mètres et pas de cumulonimbus.

METAR: DTTA 181230Z 13004KT 050V190 CAVOK 28/12 Q1017 NOSIG

Heure: 13:55 (12:55 UTC)

Prévision

Le bulletin a été fait il y a 1 heure et 34 minutes, à 11:21 UTC
Prévision valable du 18 à 12 UTC au 19 à 12 UTC
Vent 8 kt de sud
Visibilité 10 km ou plus
pas de nuages en-dessous de 1500 mètres et pas de cumulonimbus.

TAF: DTTA 181121Z 1812/1912 18008KT CAVOK

Observations et prévisions météorologiques de plus de 4000 aéroports (messages METAR et TAF).

Les stations disponibles sont représentées par des disques jaunes et rouges sur la carte.

Passer la souris dessus pour voir le nom de la station.

Cliquer dessus pour voir les observations et prévisions météorologiques.

Pour changer de carte: cliquez sur les boutons verts avec une croix noire pour zoomer, sur le bouton vert avec un tiret pour effectuer un zoom arrière, ou sur les flèches vertes pour les cartes adjacentes.


METAR-TAF: